sensor_id;sensor_type;location;lat;lon;timestamp;pressure;altitude;pressure_sealevel;temperature;humidity
72855;BME280;60991;51.278;22.550;2022-08-18T00:00:47;98880.56;;;21.47;73.94
72855;BME280;60991;51.278;22.550;2022-08-18T00:02:27;98873.41;;;21.42;73.59
72855;BME280;60991;51.278;22.550;2022-08-18T00:03:58;98870.56;;;21.38;73.27
72855;BME280;60991;51.278;22.550;2022-08-18T00:05:28;98867.69;;;21.35;73.27
72855;BME280;60991;51.278;22.550;2022-08-18T00:06:58;98875.34;;;21.33;73.59
72855;BME280;60991;51.278;22.550;2022-08-18T00:08:28;98874.09;;;21.30;73.38
72855;BME280;60991;51.278;22.550;2022-08-18T00:10:00;98875.50;;;21.28;73.10
72855;BME280;60991;51.278;22.550;2022-08-18T00:11:34;98875.81;;;21.26;73.20
72855;BME280;60991;51.278;22.550;2022-08-18T00:13:05;98868.38;;;21.23;73.31
72855;BME280;60991;51.278;22.550;2022-08-18T00:14:35;98884.88;;;21.22;73.27
72855;BME280;60991;51.278;22.550;2022-08-18T00:16:06;98872.50;;;21.21;73.34
72855;BME280;60991;51.278;22.550;2022-08-18T00:17:37;98879.78;;;21.20;73.64
72855;BME280;60991;51.278;22.550;2022-08-18T00:19:07;98870.06;;;21.19;73.22
72855;BME280;60991;51.278;22.550;2022-08-18T00:20:39;98876.31;;;21.20;73.47
72855;BME280;60991;51.278;22.550;2022-08-18T00:22:12;98868.50;;;21.18;73.45
72855;BME280;60991;51.278;22.550;2022-08-18T00:23:43;98865.00;;;21.18;73.52
72855;BME280;60991;51.278;22.550;2022-08-18T00:25:16;98867.22;;;21.16;73.41
72855;BME280;60991;51.278;22.550;2022-08-18T00:26:46;98865.66;;;21.15;73.56
72855;BME280;60991;51.278;22.550;2022-08-18T00:28:16;98866.78;;;21.14;73.58
72855;BME280;60991;51.278;22.550;2022-08-18T00:29:47;98867.88;;;21.13;73.39
72855;BME280;60991;51.278;22.550;2022-08-18T00:31:18;98864.22;;;21.08;73.84
72855;BME280;60991;51.278;22.550;2022-08-18T00:32:54;98861.38;;;21.05;73.99
72855;BME280;60991;51.278;22.550;2022-08-18T00:34:25;98865.19;;;21.04;73.88
72855;BME280;60991;51.278;22.550;2022-08-18T00:35:55;98867.06;;;21.03;73.99
72855;BME280;60991;51.278;22.550;2022-08-18T00:37:25;98874.84;;;21.05;74.00
72855;BME280;60991;51.278;22.550;2022-08-18T00:38:56;98868.66;;;21.04;74.21
72855;BME280;60991;51.278;22.550;2022-08-18T00:40:30;98874.84;;;21.05;74.12
72855;BME280;60991;51.278;22.550;2022-08-18T00:42:19;98879.47;;;21.04;74.26
72855;BME280;60991;51.278;22.550;2022-08-18T00:43:50;98881.38;;;21.04;74.00
72855;BME280;60991;51.278;22.550;2022-08-18T00:45:24;98880.25;;;21.05;74.37
72855;BME280;60991;51.278;22.550;2022-08-18T00:46:54;98893.75;;;21.05;74.55
72855;BME280;60991;51.278;22.550;2022-08-18T00:48:25;98884.88;;;21.04;74.39
72855;BME280;60991;51.278;22.550;2022-08-18T00:49:56;98888.34;;;21.05;74.48
72855;BME280;60991;51.278;22.550;2022-08-18T00:51:34;98892.97;;;21.04;74.44
72855;BME280;60991;51.278;22.550;2022-08-18T00:53:16;98892.47;;;21.02;74.55
72855;BME280;60991;51.278;22.550;2022-08-18T00:54:49;98896.28;;;21.01;74.64
72855;BME280;60991;51.278;22.550;2022-08-18T00:56:25;98893.59;;;21.01;74.72
72855;BME280;60991;51.278;22.550;2022-08-18T00:58:06;98897.41;;;21.00;74.88
72855;BME280;60991;51.278;22.550;2022-08-18T00:59:58;98902.78;;;21.00;74.68
72855;BME280;60991;51.278;22.550;2022-08-18T01:01:30;98900.88;;;21.01;74.86
72855;BME280;60991;51.278;22.550;2022-08-18T01:03:08;98899.31;;;21.00;74.94
72855;BME280;60991;51.278;22.550;2022-08-18T01:05:11;98898.38;;;20.96;74.70
72855;BME280;60991;51.278;22.550;2022-08-18T01:06:49;98893.13;;;20.91;74.55
72855;BME280;60991;51.278;22.550;2022-08-18T01:08:22;98892.97;;;20.87;74.48
72855;BME280;60991;51.278;22.550;2022-08-18T01:09:52;98904.84;;;20.86;74.71
72855;BME280;60991;51.278;22.550;2022-08-18T01:11:23;98901.38;;;20.86;74.30
72855;BME280;60991;51.278;22.550;2022-08-18T01:12:56;98903.59;;;20.84;74.49
72855;BME280;60991;51.278;22.550;2022-08-18T01:14:27;98894.06;;;20.78;74.62
72855;BME280;60991;51.278;22.550;2022-08-18T01:15:58;98892.94;;;20.79;74.44
72855;BME280;60991;51.278;22.550;2022-08-18T01:17:28;98894.06;;;20.78;74.72
72855;BME280;60991;51.278;22.550;2022-08-18T01:18:59;98893.28;;;20.77;74.60
72855;BME280;60991;51.278;22.550;2022-08-18T01:20:42;98892.50;;;20.77;74.54
72855;BME280;60991;51.278;22.550;2022-08-18T01:22:32;98901.69;;;20.76;74.67
72855;BME280;60991;51.278;22.550;2022-08-18T01:24:07;98900.91;;;20.75;74.81
72855;BME280;60991;51.278;22.550;2022-08-18T01:25:38;98901.22;;;20.73;74.53
72855;BME280;60991;51.278;22.550;2022-08-18T01:27:10;98904.22;;;20.72;74.75
72855;BME280;60991;51.278;22.550;2022-08-18T01:28:43;98906.13;;;20.71;74.62
72855;BME280;60991;51.278;22.550;2022-08-18T01:30:15;98909.94;;;20.70;74.66
72855;BME280;60991;51.278;22.550;2022-08-18T01:31:51;98904.84;;;20.69;74.86
72855;BME280;60991;51.278;22.550;2022-08-18T01:33:28;98898.97;;;20.67;74.99
72855;BME280;60991;51.278;22.550;2022-08-18T01:34:59;98901.19;;;20.65;75.08
72855;BME280;60991;51.278;22.550;2022-08-18T01:36:29;98905.78;;;20.64;74.83
72855;BME280;60991;51.278;22.550;2022-08-18T01:38:00;98901.19;;;20.65;74.84
72855;BME280;60991;51.278;22.550;2022-08-18T01:39:30;98902.28;;;20.64;74.94
72855;BME280;60991;51.278;22.550;2022-08-18T01:41:00;98907.19;;;20.62;74.91
72855;BME280;60991;51.278;22.550;2022-08-18T01:42:31;98900.22;;;20.61;75.02
72855;BME280;60991;51.278;22.550;2022-08-18T01:44:03;98901.00;;;20.61;75.02
72855;BME280;60991;51.278;22.550;2022-08-18T01:45:33;98904.03;;;20.60;75.05
72855;BME280;60991;51.278;22.550;2022-08-18T01:47:03;98907.06;;;20.58;74.88
72855;BME280;60991;51.278;22.550;2022-08-18T01:48:35;98908.16;;;20.57;75.04
72855;BME280;60991;51.278;22.550;2022-08-18T01:50:07;98906.09;;;20.54;75.16
72855;BME280;60991;51.278;22.550;2022-08-18T01:51:37;98914.00;;;20.51;75.39
72855;BME280;60991;51.278;22.550;2022-08-18T01:53:09;98912.72;;;20.48;75.37
72855;BME280;60991;51.278;22.550;2022-08-18T01:54:39;98908.44;;;20.47;75.36
72855;BME280;60991;51.278;22.550;2022-08-18T01:56:09;98904.78;;;20.43;75.55
72855;BME280;60991;51.278;22.550;2022-08-18T01:57:40;98904.31;;;20.41;75.29
72855;BME280;60991;51.278;22.550;2022-08-18T01:59:10;98898.75;;;20.37;75.57
72855;BME280;60991;51.278;22.550;2022-08-18T02:00:40;98899.88;;;20.36;75.70
72855;BME280;60991;51.278;22.550;2022-08-18T02:02:14;98911.13;;;20.38;75.50
72855;BME280;60991;51.278;22.550;2022-08-18T02:03:50;98910.34;;;20.38;75.69
72855;BME280;60991;51.278;22.550;2022-08-18T02:05:31;98909.53;;;20.37;75.65
72855;BME280;60991;51.278;22.550;2022-08-18T02:07:06;98912.72;;;20.39;75.54
72855;BME280;60991;51.278;22.550;2022-08-18T02:08:37;98907.34;;;20.39;75.48
72855;BME280;60991;51.278;22.550;2022-08-18T02:10:08;98905.44;;;20.40;75.41
72855;BME280;60991;51.278;22.550;2022-08-18T02:11:38;98908.94;;;20.41;75.38
72855;BME280;60991;51.278;22.550;2022-08-18T02:13:09;98909.69;;;20.41;75.40
72855;BME280;60991;51.278;22.550;2022-08-18T02:14:40;98907.34;;;20.39;75.45
72855;BME280;60991;51.278;22.550;2022-08-18T02:16:10;98911.13;;;20.38;75.54
72855;BME280;60991;51.278;22.550;2022-08-18T02:17:42;98910.94;;;20.35;75.12
72855;BME280;60991;51.278;22.550;2022-08-18T02:19:13;98915.66;;;20.29;74.99
72855;BME280;60991;51.278;22.550;2022-08-18T02:20:43;98915.78;;;20.24;75.18
72855;BME280;60991;51.278;22.550;2022-08-18T02:22:17;98905.66;;;20.21;75.20
72855;BME280;60991;51.278;22.550;2022-08-18T02:23:49;98905.19;;;20.19;75.25
72855;BME280;60991;51.278;22.550;2022-08-18T02:25:19;98904.38;;;20.19;75.35
72855;BME280;60991;51.278;22.550;2022-08-18T02:26:50;98919.28;;;20.16;75.53
72855;BME280;60991;51.278;22.550;2022-08-18T02:28:20;98910.41;;;20.16;75.44
72855;BME280;60991;51.278;22.550;2022-08-18T02:29:50;98912.28;;;20.15;75.61
72855;BME280;60991;51.278;22.550;2022-08-18T02:31:22;98915.28;;;20.14;75.54
72855;BME280;60991;51.278;22.550;2022-08-18T02:32:53;98912.13;;;20.12;75.38
72855;BME280;60991;51.278;22.550;2022-08-18T02:34:24;98909.41;;;20.12;75.54
72855;BME280;60991;51.278;22.550;2022-08-18T02:35:54;98908.63;;;20.11;75.46
72855;BME280;60991;51.278;22.550;2022-08-18T02:37:24;98917.03;;;20.10;75.47
72855;BME280;60991;51.278;22.550;2022-08-18T02:38:55;98924.31;;;20.09;75.54
72855;BME280;60991;51.278;22.550;2022-08-18T02:40:25;98921.13;;;20.07;75.55
72855;BME280;60991;51.278;22.550;2022-08-18T02:41:56;98921.44;;;20.05;75.70
72855;BME280;60991;51.278;22.550;2022-08-18T02:43:27;98931.09;;;20.06;75.58
72855;BME280;60991;51.278;22.550;2022-08-18T02:44:58;98930.63;;;20.04;75.96
72855;BME280;60991;51.278;22.550;2022-08-18T02:46:29;98933.66;;;20.03;75.86
72855;BME280;60991;51.278;22.550;2022-08-18T02:47:59;98932.84;;;20.02;75.97
72855;BME280;60991;51.278;22.550;2022-08-18T02:49:29;98946.34;;;20.02;75.89
72855;BME280;60991;51.278;22.550;2022-08-18T02:51:05;98934.75;;;20.02;75.92
72855;BME280;60991;51.278;22.550;2022-08-18T02:52:36;98940.16;;;20.02;75.65
72855;BME280;60991;51.278;22.550;2022-08-18T02:54:06;98935.88;;;20.01;75.74
72855;BME280;60991;51.278;22.550;2022-08-18T02:55:37;98936.16;;;19.99;75.82
72855;BME280;60991;51.278;22.550;2022-08-18T02:57:11;98938.19;;;19.94;76.08
72855;BME280;60991;51.278;22.550;2022-08-18T02:58:42;98940.88;;;19.94;76.07
72855;BME280;60991;51.278;22.550;2022-08-18T03:00:14;98942.47;;;19.95;76.15
72855;BME280;60991;51.278;22.550;2022-08-18T03:01:48;98940.88;;;19.94;76.04
72855;BME280;60991;51.278;22.550;2022-08-18T03:03:19;98936.78;;;19.96;76.18
72855;BME280;60991;51.278;22.550;2022-08-18T03:04:49;98928.22;;;19.94;76.26
72855;BME280;60991;51.278;22.550;2022-08-18T03:06:20;98930.28;;;19.97;76.09
72855;BME280;60991;51.278;22.550;2022-08-18T03:07:51;98933.78;;;19.98;76.17
72855;BME280;60991;51.278;22.550;2022-08-18T03:09:21;98933.47;;;19.99;76.29
72855;BME280;60991;51.278;22.550;2022-08-18T03:10:52;98933.16;;;20.01;76.19
72855;BME280;60991;51.278;22.550;2022-08-18T03:12:22;98936.97;;;20.00;76.45
72855;BME280;60991;51.278;22.550;2022-08-18T03:13:53;98935.88;;;20.01;76.35
72855;BME280;60991;51.278;22.550;2022-08-18T03:15:24;98936.66;;;20.01;76.45
72855;BME280;60991;51.278;22.550;2022-08-18T03:16:54;98935.56;;;20.02;76.30
72855;BME280;60991;51.278;22.550;2022-08-18T03:18:25;98932.06;;;20.02;76.58
72855;BME280;60991;51.278;22.550;2022-08-18T03:19:55;98930.97;;;20.03;76.58
72855;BME280;60991;51.278;22.550;2022-08-18T03:21:28;98937.44;;;20.02;76.61
72855;BME280;60991;51.278;22.550;2022-08-18T03:22:58;98933.78;;;19.98;76.88
72855;BME280;60991;51.278;22.550;2022-08-18T03:24:30;98935.00;;;19.92;77.05
72855;BME280;60991;51.278;22.550;2022-08-18T03:26:01;98942.13;;;19.88;77.34
72855;BME280;60991;51.278;22.550;2022-08-18T03:27:31;98938.63;;;19.87;77.34
72855;BME280;60991;51.278;22.550;2022-08-18T03:29:02;98951.78;;;19.89;77.30
72855;BME280;60991;51.278;22.550;2022-08-18T03:30:32;98945.28;;;19.90;77.17
72855;BME280;60991;51.278;22.550;2022-08-18T03:32:05;98953.06;;;19.91;77.28
72855;BME280;60991;51.278;22.550;2022-08-18T03:33:36;98953.06;;;19.91;77.23
72855;BME280;60991;51.278;22.550;2022-08-18T03:35:06;98955.75;;;19.91;77.08
72855;BME280;60991;51.278;22.550;2022-08-18T03:36:37;98955.75;;;19.91;77.23
72855;BME280;60991;51.278;22.550;2022-08-18T03:38:07;98954.97;;;19.91;77.21
72855;BME280;60991;51.278;22.550;2022-08-18T03:39:39;98954.19;;;19.90;77.05
72855;BME280;60991;51.278;22.550;2022-08-18T03:41:12;98950.69;;;19.90;77.01
72855;BME280;60991;51.278;22.550;2022-08-18T03:42:43;98949.88;;;19.89;76.96
72855;BME280;60991;51.278;22.550;2022-08-18T03:44:14;98956.06;;;19.90;76.88
72855;BME280;60991;51.278;22.550;2022-08-18T03:45:44;98956.38;;;19.88;76.90
72855;BME280;60991;51.278;22.550;2022-08-18T03:47:14;98960.47;;;19.86;77.01
72855;BME280;60991;51.278;22.550;2022-08-18T03:48:45;98964.31;;;19.85;76.93
72855;BME280;60991;51.278;22.550;2022-08-18T03:50:16;98965.41;;;19.84;76.96
72855;BME280;60991;51.278;22.550;2022-08-18T03:51:46;98960.31;;;19.82;77.01
72855;BME280;60991;51.278;22.550;2022-08-18T03:53:17;98964.13;;;19.81;76.89
72855;BME280;60991;51.278;22.550;2022-08-18T03:54:47;98964.44;;;19.80;76.76
72855;BME280;60991;51.278;22.550;2022-08-18T03:56:22;98962.34;;;19.77;77.21
72855;BME280;60991;51.278;22.550;2022-08-18T03:57:59;98969.94;;;19.75;77.43
72855;BME280;60991;51.278;22.550;2022-08-18T03:59:30;98967.25;;;19.75;77.31
72855;BME280;60991;51.278;22.550;2022-08-18T04:01:00;98966.94;;;19.76;77.35
72855;BME280;60991;51.278;22.550;2022-08-18T04:02:30;98976.13;;;19.75;77.35
72855;BME280;60991;51.278;22.550;2022-08-18T04:04:04;98972.31;;;19.76;77.48
72855;BME280;60991;51.278;22.550;2022-08-18T04:05:38;98976.41;;;19.74;77.81
72855;BME280;60991;51.278;22.550;2022-08-18T04:07:11;98964.38;;;19.71;77.80
72855;BME280;60991;51.278;22.550;2022-08-18T04:08:42;98965.66;;;19.74;77.84
72855;BME280;60991;51.278;22.550;2022-08-18T04:10:13;98971.53;;;19.76;77.64
72855;BME280;60991;51.278;22.550;2022-08-18T04:11:44;98972.50;;;19.80;77.68
72855;BME280;60991;51.278;22.550;2022-08-18T04:13:14;98964.13;;;19.81;77.59
72855;BME280;60991;51.278;22.550;2022-08-18T04:14:47;98972.38;;;19.85;77.52
72855;BME280;60991;51.278;22.550;2022-08-18T04:16:18;98975.09;;;19.85;77.76
72855;BME280;60991;51.278;22.550;2022-08-18T04:17:48;98983.16;;;19.85;77.69
72855;BME280;60991;51.278;22.550;2022-08-18T04:19:18;98984.72;;;19.86;77.96
72855;BME280;60991;51.278;22.550;2022-08-18T04:20:49;98983.16;;;19.85;78.04
72855;BME280;60991;51.278;22.550;2022-08-18T04:22:19;98982.81;;;19.86;78.33
72855;BME280;60991;51.278;22.550;2022-08-18T04:23:50;98979.03;;;19.87;78.62
72855;BME280;60991;51.278;22.550;2022-08-18T04:25:20;98981.72;;;19.87;78.50
72855;BME280;60991;51.278;22.550;2022-08-18T04:26:51;98981.41;;;19.89;78.31
72855;BME280;60991;51.278;22.550;2022-08-18T04:28:21;98984.91;;;19.89;78.58
72855;BME280;60991;51.278;22.550;2022-08-18T04:29:51;98983.81;;;19.90;78.35
72855;BME280;60991;51.278;22.550;2022-08-18T04:31:21;98984.59;;;19.91;78.64
72855;BME280;60991;51.278;22.550;2022-08-18T04:32:52;98990.47;;;19.93;78.65
72855;BME280;60991;51.278;22.550;2022-08-18T04:34:22;98986.19;;;19.92;78.73
72855;BME280;60991;51.278;22.550;2022-08-18T04:35:53;98990.00;;;19.91;78.63
72855;BME280;60991;51.278;22.550;2022-08-18T04:37:24;98991.59;;;19.92;78.77
72855;BME280;60991;51.278;22.550;2022-08-18T04:38:54;98993.66;;;19.95;78.95
72855;BME280;60991;51.278;22.550;2022-08-18T04:40:24;98989.06;;;19.95;78.81
72855;BME280;60991;51.278;22.550;2022-08-18T04:41:55;98993.34;;;19.96;79.12
72855;BME280;60991;51.278;22.550;2022-08-18T04:43:26;98992.25;;;19.97;79.12
72855;BME280;60991;51.278;22.550;2022-08-18T04:44:56;98994.66;;;19.99;79.37
72855;BME280;60991;51.278;22.550;2022-08-18T04:46:27;98997.03;;;20.00;79.04
72855;BME280;60991;51.278;22.550;2022-08-18T04:47:58;98997.84;;;20.01;79.21
72855;BME280;60991;51.278;22.550;2022-08-18T04:49:28;99000.22;;;20.02;79.21
72855;BME280;60991;51.278;22.550;2022-08-18T04:51:09;98999.88;;;20.04;79.47
72855;BME280;60991;51.278;22.550;2022-08-18T04:52:42;99004.16;;;20.05;79.72
72855;BME280;60991;51.278;22.550;2022-08-18T04:54:12;99000.06;;;20.08;79.89
72855;BME280;60991;51.278;22.550;2022-08-18T04:55:48;99006.25;;;20.08;79.87
72855;BME280;60991;51.278;22.550;2022-08-18T04:57:19;99009.75;;;20.09;79.70
72855;BME280;60991;51.278;22.550;2022-08-18T04:58:49;99011.81;;;20.12;79.62
72855;BME280;60991;51.278;22.550;2022-08-18T05:00:19;99019.31;;;20.15;79.53
72855;BME280;60991;51.278;22.550;2022-08-18T05:01:50;99018.69;;;20.18;79.44
72855;BME280;60991;51.278;22.550;2022-08-18T05:03:20;99015.38;;;20.21;79.32
72855;BME280;60991;51.278;22.550;2022-08-18T05:04:51;99014.72;;;20.24;79.36
72855;BME280;60991;51.278;22.550;2022-08-18T05:06:23;99017.91;;;20.26;79.26
72855;BME280;60991;51.278;22.550;2022-08-18T05:07:53;99016.50;;;20.28;79.03
72855;BME280;60991;51.278;22.550;2022-08-18T05:09:24;99010.50;;;20.31;79.05
72855;BME280;60991;51.278;22.550;2022-08-18T05:10:55;99023.38;;;20.34;79.25
72855;BME280;60991;51.278;22.550;2022-08-18T05:12:26;99013.91;;;20.37;79.34
72855;BME280;60991;51.278;22.550;2022-08-18T05:13:56;99017.06;;;20.39;79.30
72855;BME280;60991;51.278;22.550;2022-08-18T05:15:27;99012.94;;;20.42;79.21
72855;BME280;60991;51.278;22.550;2022-08-18T05:17:02;99002.66;;;20.44;79.27
72855;BME280;60991;51.278;22.550;2022-08-18T05:18:33;99005.53;;;20.47;79.28
72855;BME280;60991;51.278;22.550;2022-08-18T05:20:06;99003.00;;;20.51;79.31
72855;BME280;60991;51.278;22.550;2022-08-18T05:21:37;99002.69;;;20.52;79.43
72855;BME280;60991;51.278;22.550;2022-08-18T05:23:08;99000.78;;;20.53;79.36
72855;BME280;60991;51.278;22.550;2022-08-18T05:24:38;99002.06;;;20.55;79.53
72855;BME280;60991;51.278;22.550;2022-08-18T05:26:09;99006.84;;;20.58;79.28
72855;BME280;60991;51.278;22.550;2022-08-18T05:27:41;99012.69;;;20.60;79.39
72855;BME280;60991;51.278;22.550;2022-08-18T05:29:11;99015.09;;;20.62;79.54
72855;BME280;60991;51.278;22.550;2022-08-18T05:30:42;99013.97;;;20.63;79.51
72855;BME280;60991;51.278;22.550;2022-08-18T05:32:13;99018.75;;;20.66;79.66
72855;BME280;60991;51.278;22.550;2022-08-18T05:33:44;99016.22;;;20.69;79.66
72855;BME280;60991;51.278;22.550;2022-08-18T05:35:20;99014.81;;;20.72;79.73
72855;BME280;60991;51.278;22.550;2022-08-18T05:37:15;99009.59;;;20.76;79.74
72855;BME280;60991;51.278;22.550;2022-08-18T05:38:57;99011.63;;;20.79;79.76
72855;BME280;60991;51.278;22.550;2022-08-18T05:40:32;99005.63;;;20.82;79.80
72855;BME280;60991;51.278;22.550;2022-08-18T05:42:17;99003.09;;;20.85;79.73
72855;BME280;60991;51.278;22.550;2022-08-18T05:43:50;99004.38;;;20.88;79.68
72855;BME280;60991;51.278;22.550;2022-08-18T05:45:21;99006.75;;;20.89;79.58
72855;BME280;60991;51.278;22.550;2022-08-18T05:48:39;99009.31;;;20.94;79.30
72855;BME280;60991;51.278;22.550;2022-08-18T05:50:13;99005.16;;;20.97;79.00
72855;BME280;60991;51.278;22.550;2022-08-18T05:51:46;99013.44;;;21.00;78.95
72855;BME280;60991;51.278;22.550;2022-08-18T05:53:18;99005.81;;;21.02;79.09
72855;BME280;60991;51.278;22.550;2022-08-18T05:54:51;99003.59;;;21.04;79.00
72855;BME280;60991;51.278;22.550;2022-08-18T05:56:26;99013.78;;;21.07;78.96
72855;BME280;60991;51.278;22.550;2022-08-18T05:58:03;99010.47;;;21.11;78.55
72855;BME280;60991;51.278;22.550;2022-08-18T05:59:37;99015.69;;;21.16;78.28
72855;BME280;60991;51.278;22.550;2022-08-18T06:01:31;99006.16;;;21.18;78.19
72855;BME280;60991;51.278;22.550;2022-08-18T06:03:13;99010.97;;;21.21;77.92
72855;BME280;60991;51.278;22.550;2022-08-18T06:04:53;99009.22;;;21.25;78.15
72855;BME280;60991;51.278;22.550;2022-08-18T06:06:27;99012.41;;;21.27;77.60
72855;BME280;60991;51.278;22.550;2022-08-18T06:08:06;99012.09;;;21.29;77.87
72855;BME280;60991;51.278;22.550;2022-08-18T06:09:42;99007.16;;;21.31;77.79
72855;BME280;60991;51.278;22.550;2022-08-18T06:11:16;99015.41;;;21.34;77.93
72855;BME280;60991;51.278;22.550;2022-08-18T06:13:00;99010.97;;;21.38;77.37
72855;BME280;60991;51.278;22.550;2022-08-18T06:14:30;99015.75;;;21.41;76.87
72855;BME280;60991;51.278;22.550;2022-08-18T06:16:10;99014.31;;;21.44;76.73
72855;BME280;60991;51.278;22.550;2022-08-18T06:21:48;99007.34;;;21.52;76.88
72855;BME280;60991;51.278;22.550;2022-08-18T06:25:32;99017.81;;;21.62;77.29
72855;BME280;60991;51.278;22.550;2022-08-18T06:27:34;99013.69;;;21.64;76.90
72855;BME280;60991;51.278;22.550;2022-08-18T06:35:31;99001.56;;;21.79;76.42
72855;BME280;60991;51.278;22.550;2022-08-18T06:37:13;99007.47;;;21.81;76.44
72855;BME280;60991;51.278;22.550;2022-08-18T06:40:51;99006.19;;;21.87;76.61
72855;BME280;60991;51.278;22.550;2022-08-18T06:42:29;99004.41;;;21.91;76.96
72855;BME280;60991;51.278;22.550;2022-08-18T06:44:03;99005.66;;;21.94;76.76
72855;BME280;60991;51.278;22.550;2022-08-18T06:45:36;99004.25;;;21.96;76.88
72855;BME280;60991;51.278;22.550;2022-08-18T06:49:05;99005.38;;;22.04;76.85
72855;BME280;60991;51.278;22.550;2022-08-18T06:50:52;99001.25;;;22.06;76.58
72855;BME280;60991;51.278;22.550;2022-08-18T06:52:28;99003.75;;;22.11;76.30
72855;BME280;60991;51.278;22.550;2022-08-18T06:54:03;99006.94;;;22.14;76.25
72855;BME280;60991;51.278;22.550;2022-08-18T06:55:47;99002.47;;;22.18;76.11
72855;BME280;60991;51.278;22.550;2022-08-18T06:57:28;99005.66;;;22.20;75.92
72855;BME280;60991;51.278;22.550;2022-08-18T07:02:24;99006.41;;;22.29;76.41
72855;BME280;60991;51.278;22.550;2022-08-18T07:03:55;99013.22;;;22.35;76.37
72855;BME280;60991;51.278;22.550;2022-08-18T07:05:30;99009.88;;;22.38;75.91
72855;BME280;60991;51.278;22.550;2022-08-18T07:09:23;99016.34;;;22.45;74.91
72855;BME280;60991;51.278;22.550;2022-08-18T07:10:53;99004.88;;;22.49;74.59
72855;BME280;60991;51.278;22.550;2022-08-18T07:12:27;99010.78;;;22.51;74.67
72855;BME280;60991;51.278;22.550;2022-08-18T07:14:14;99014.41;;;22.55;75.18
72855;BME280;60991;51.278;22.550;2022-08-18T07:15:49;99012.97;;;22.57;74.62
72855;BME280;60991;51.278;22.550;2022-08-18T07:17:37;99019.97;;;22.58;74.26
72855;BME280;60991;51.278;22.550;2022-08-18T07:19:13;99016.63;;;22.61;74.75
72855;BME280;60991;51.278;22.550;2022-08-18T07:20:58;99014.84;;;22.65;74.62
72855;BME280;60991;51.278;22.550;2022-08-18T07:22:30;99017.22;;;22.67;74.32
72855;BME280;60991;51.278;22.550;2022-08-18T07:24:24;99012.75;;;22.71;74.54
72855;BME280;60991;51.278;22.550;2022-08-18T07:26:11;99014.81;;;22.74;74.31
72855;BME280;60991;51.278;22.550;2022-08-18T07:27:46;99016.91;;;22.77;74.26
72855;BME280;60991;51.278;22.550;2022-08-18T07:29:17;99017.47;;;22.83;74.25
72855;BME280;60991;51.278;22.550;2022-08-18T07:30:47;99017.63;;;22.86;73.65
72855;BME280;60991;51.278;22.550;2022-08-18T07:32:20;99017.78;;;22.90;73.87
72855;BME280;60991;51.278;22.550;2022-08-18T07:34:14;99009.00;;;22.93;73.04
72855;BME280;60991;51.278;22.550;2022-08-18T07:35:49;99006.75;;;22.95;73.46
72855;BME280;60991;51.278;22.550;2022-08-18T07:37:25;99013.13;;;22.99;72.96
72855;BME280;60991;51.278;22.550;2022-08-18T07:39:13;99005.56;;;23.04;71.50
72855;BME280;60991;51.278;22.550;2022-08-18T07:40:57;99010.66;;;23.06;71.76
72855;BME280;60991;51.278;22.550;2022-08-18T07:42:50;99008.41;;;23.08;72.07
72855;BME280;60991;51.278;22.550;2022-08-18T07:44:45;99007.28;;;23.09;72.22
72855;BME280;60991;51.278;22.550;2022-08-18T07:47:57;99004.06;;;23.16;72.36
72855;BME280;60991;51.278;22.550;2022-08-18T07:49:33;99003.44;;;23.19;72.56
72855;BME280;60991;51.278;22.550;2022-08-18T07:54:56;99009.38;;;23.33;71.87
72855;BME280;60991;51.278;22.550;2022-08-18T08:01:46;99011.47;;;23.48;71.36
72855;BME280;60991;51.278;22.550;2022-08-18T08:07:49;99024.28;;;23.60;68.27
72855;BME280;60991;51.278;22.550;2022-08-18T08:09:42;99023.19;;;23.61;68.48
72855;BME280;60991;51.278;22.550;2022-08-18T08:15:43;99030.91;;;23.71;68.18
72855;BME280;60991;51.278;22.550;2022-08-18T08:16:49;99030.25;;;23.74;68.02
72855;BME280;60991;51.278;22.550;2022-08-18T08:20:43;99027.66;;;23.77;68.77
72855;BME280;60991;51.278;22.550;2022-08-18T08:22:20;99037.81;;;23.80;68.99
72855;BME280;60991;51.278;22.550;2022-08-18T08:28:11;99038.31;;;23.95;69.28
72855;BME280;60991;51.278;22.550;2022-08-18T08:33:35;99042.00;;;24.11;69.42
72855;BME280;60991;51.278;22.550;2022-08-18T08:35:13;99038.94;;;24.12;69.08
72855;BME280;60991;51.278;22.550;2022-08-18T08:36:46;99035.56;;;24.15;69.19
72855;BME280;60991;51.278;22.550;2022-08-18T08:38:24;99041.91;;;24.20;68.71
72855;BME280;60991;51.278;22.550;2022-08-18T08:40:00;99033.91;;;24.23;68.28
72855;BME280;60991;51.278;22.550;2022-08-18T08:41:37;99039.00;;;24.25;67.10
72855;BME280;60991;51.278;22.550;2022-08-18T08:43:12;99041.41;;;24.26;67.29
72855;BME280;60991;51.278;22.550;2022-08-18T08:44:55;99035.31;;;24.29;66.94
72855;BME280;60991;51.278;22.550;2022-08-18T08:46:28;99038.13;;;24.33;66.14
72855;BME280;60991;51.278;22.550;2022-08-18T08:48:20;99041.75;;;24.37;65.37
72855;BME280;60991;51.278;22.550;2022-08-18T08:50:13;99043.31;;;24.38;65.19
72855;BME280;60991;51.278;22.550;2022-08-18T08:51:49;99036.44;;;24.40;65.67
72855;BME280;60991;51.278;22.550;2022-08-18T08:53:26;99043.13;;;24.43;65.80
72855;BME280;60991;51.278;22.550;2022-08-18T08:55:16;99043.25;;;24.46;65.63
72855;BME280;60991;51.278;22.550;2022-08-18T08:56:49;99044.59;;;24.52;64.32
72855;BME280;60991;51.278;22.550;2022-08-18T08:58:27;99041.53;;;24.54;64.05
72855;BME280;60991;51.278;22.550;2022-08-18T09:00:02;99035.09;;;24.59;63.92
72855;BME280;60991;51.278;22.550;2022-08-18T09:03:23;99040.31;;;24.64;63.69
72855;BME280;60991;51.278;22.550;2022-08-18T09:05:08;99033.75;;;24.65;63.22
72855;BME280;60991;51.278;22.550;2022-08-18T09:07:33;99033.09;;;24.68;63.15